Terminal Aerodrome Forecast
Issued by NWS

Home | Current Version | Previous Version | Text Only | Print | Product List | Glossary On
Versions: 1 2 3 4 5 6 7 8 9 10 11 12 13 14 15 16 17 18 19 20 21
000
FTUS43 KABR 310500
TAFATY
TAF
KATY 310539Z 3106/0106 36008KT P6SM SKC WS015/02035KT
     FM311200 VRB06KT P6SM SKC
     FM311700 14009KT P6SM SKC
     FM010300 15012KT P6SM SCT250=

USA.gov is the U.S. government's official web portal to all federal, state and local government web resources and services.